createdAt,value
2018-01-23T00:00:57.574Z,3.88
2018-01-23T00:02:04.273Z,3.88
2018-01-23T00:03:10.396Z,3.91
2018-01-23T00:04:16.622Z,3.96
2018-01-23T00:05:22.812Z,3.96
2018-01-23T00:06:29.025Z,4.00
2018-01-23T00:07:35.229Z,4.03
2018-01-23T00:08:41.959Z,4.04
2018-01-23T00:09:48.148Z,4.07
2018-01-23T00:10:54.279Z,4.03
2018-01-23T00:12:00.486Z,4.03
2018-01-23T00:13:06.652Z,4.02
2018-01-23T00:14:13.141Z,4.03
2018-01-23T00:15:21.368Z,4.01
2018-01-23T00:16:27.889Z,4.03
2018-01-23T00:17:39.012Z,3.99
2018-01-23T00:18:45.209Z,4.01
2018-01-23T00:19:52.488Z,4.06
2018-01-23T00:20:58.617Z,4.06
2018-01-23T00:22:07.817Z,3.95
2018-01-23T00:23:15.684Z,3.93
2018-01-23T00:24:22.968Z,3.99
2018-01-23T00:25:29.641Z,4.04
2018-01-23T00:26:36.841Z,4.06
2018-01-23T00:27:43.049Z,4.03
2018-01-23T00:28:49.193Z,4.00
2018-01-23T00:29:55.385Z,4.01
2018-01-23T00:31:01.686Z,4.01
2018-01-23T00:32:07.849Z,3.99
2018-01-23T00:33:14.103Z,3.98
2018-01-23T00:34:21.230Z,4.02
2018-01-23T00:35:27.424Z,4.02
2018-01-23T00:36:33.648Z,4.01
2018-01-23T00:37:39.858Z,4.02
2018-01-23T00:38:45.992Z,4.04
2018-01-23T00:39:51.790Z,4.03
2018-01-23T00:40:58.025Z,4.04
2018-01-23T00:42:04.206Z,4.09
2018-01-23T00:43:10.365Z,4.09
2018-01-23T00:44:20.474Z,4.07
2018-01-23T00:45:26.666Z,4.07
2018-01-23T00:46:34.058Z,4.06
2018-01-23T00:47:40.192Z,4.06
2018-01-23T00:48:52.898Z,4.05
2018-01-23T00:49:59.082Z,4.02
2018-01-23T00:51:05.563Z,4.02
2018-01-23T00:52:13.577Z,4.04
2018-01-23T00:53:20.070Z,4.01
2018-01-23T00:54:25.861Z,3.99
2018-01-23T00:55:32.612Z,4.02
2018-01-23T00:56:38.812Z,4.03
2018-01-23T00:57:44.960Z,4.01
2018-01-23T00:58:51.180Z,4.02
2018-01-23T00:59:57.374Z,4.07
2018-01-23T01:01:03.571Z,4.08
2018-01-23T01:02:09.846Z,4.08
2018-01-23T01:03:16.026Z,4.11
2018-01-23T01:04:22.515Z,4.12
2018-01-23T01:05:28.763Z,4.09
2018-01-23T01:06:34.938Z,4.04
2018-01-23T01:07:41.132Z,4.09
2018-01-23T01:08:47.266Z,4.10
2018-01-23T01:09:53.493Z,4.13
2018-01-23T01:11:03.541Z,4.12
2018-01-23T01:12:09.738Z,4.11
2018-01-23T01:13:15.884Z,4.08
2018-01-23T01:14:22.060Z,4.10
2018-01-23T01:15:27.947Z,4.13
2018-01-23T01:16:34.149Z,4.11
2018-01-23T01:17:40.614Z,4.10
2018-01-23T01:18:46.876Z,4.07
2018-01-23T01:19:53.089Z,4.12
2018-01-23T01:20:59.343Z,4.13
2018-01-23T01:22:06.856Z,4.07
2018-01-23T01:23:13.061Z,4.08
2018-01-23T01:24:19.269Z,4.05
2018-01-23T01:25:25.428Z,4.01
2018-01-23T01:26:31.645Z,4.09
2018-01-23T01:27:37.796Z,4.11
2018-01-23T01:28:44.965Z,4.18
2018-01-23T01:29:51.141Z,4.21
2018-01-23T01:30:57.353Z,4.22
2018-01-23T01:32:04.565Z,4.29
2018-01-23T01:33:10.813Z,4.26
2018-01-23T01:34:16.980Z,4.26
2018-01-23T01:35:23.196Z,4.27
2018-01-23T01:36:29.368Z,4.28
2018-01-23T01:37:35.527Z,4.28
2018-01-23T01:38:41.674Z,4.29
2018-01-23T01:39:48.799Z,4.28
2018-01-23T01:40:54.984Z,4.32
2018-01-23T01:42:00.864Z,4.32
2018-01-23T01:43:07.142Z,4.30
2018-01-23T01:44:13.321Z,4.30
2018-01-23T01:45:19.476Z,4.33
2018-01-23T01:46:26.390Z,4.40
2018-01-23T01:47:33.004Z,4.37
2018-01-23T01:48:50.294Z,4.34
2018-01-23T01:49:56.472Z,4.30
2018-01-23T01:51:02.651Z,4.23
2018-01-23T01:52:08.837Z,4.28
2018-01-23T01:53:15.001Z,4.28
2018-01-23T01:54:22.895Z,4.29
2018-01-23T01:55:29.272Z,4.28
2018-01-23T01:56:35.401Z,4.23
2018-01-23T01:57:41.646Z,4.26
2018-01-23T01:58:47.809Z,4.28
2018-01-23T01:59:54.035Z,4.23
2018-01-23T02:01:00.406Z,4.23
2018-01-23T02:02:07.158Z,4.25
2018-01-23T02:03:13.349Z,4.22
2018-01-23T02:04:19.500Z,4.26
2018-01-23T02:05:25.801Z,4.29
2018-01-23T02:06:31.939Z,4.29
2018-01-23T02:07:38.096Z,4.27
2018-01-23T02:08:44.231Z,4.24
2018-01-23T02:09:50.419Z,4.27
2018-01-23T02:10:56.615Z,4.29
2018-01-23T02:12:03.277Z,4.27
2018-01-23T02:13:09.515Z,4.26
2018-01-23T02:14:15.445Z,4.26
2018-01-23T02:15:21.381Z,4.29
2018-01-23T02:16:27.671Z,4.29
2018-01-23T02:17:33.791Z,4.27
2018-01-23T02:18:39.980Z,4.24
2018-01-23T02:19:46.128Z,4.17
2018-01-23T02:20:52.337Z,4.20
2018-01-23T02:21:58.505Z,4.27
2018-01-23T02:23:04.652Z,4.32
2018-01-23T02:24:10.803Z,4.36
2018-01-23T02:25:17.057Z,4.34
2018-01-23T02:26:23.311Z,4.33
2018-01-23T02:27:29.515Z,4.32
2018-01-23T02:28:35.619Z,4.36
2018-01-23T02:29:41.832Z,4.38
2018-01-23T02:30:48.009Z,4.39
2018-01-23T02:31:54.154Z,4.39
2018-01-23T02:33:00.363Z,4.34
2018-01-23T02:34:06.552Z,4.37
2018-01-23T02:35:13.008Z,4.38
2018-01-23T02:36:19.209Z,4.36
2018-01-23T02:37:25.344Z,4.35
2018-01-23T02:38:31.503Z,4.39
2018-01-23T02:39:37.383Z,4.36
2018-01-23T02:40:43.335Z,4.38
2018-01-23T02:41:50.717Z,4.39
2018-01-23T02:42:56.885Z,4.38
2018-01-23T02:44:03.107Z,4.34
2018-01-23T02:45:09.295Z,4.34
2018-01-23T02:46:15.407Z,4.35
2018-01-23T02:47:21.584Z,4.34
2018-01-23T02:48:28.073Z,4.27
2018-01-23T02:49:34.494Z,4.23
2018-01-23T02:50:40.677Z,4.24
2018-01-23T02:51:47.417Z,4.27
2018-01-23T02:52:53.293Z,4.27
2018-01-23T02:53:59.458Z,4.37
2018-01-23T02:55:05.590Z,4.30
2018-01-23T02:56:14.785Z,4.34
2018-01-23T02:57:21.026Z,4.35
2018-01-23T02:58:27.176Z,4.37
2018-01-23T02:59:33.384Z,4.37
2018-01-23T03:00:39.516Z,4.33
2018-01-23T03:01:45.481Z,4.33
2018-01-23T03:02:51.655Z,4.31
2018-01-23T03:03:57.885Z,4.26
2018-01-23T03:05:03.755Z,4.22
2018-01-23T03:06:09.888Z,4.24
2018-01-23T03:07:16.049Z,4.25
2018-01-23T03:08:23.015Z,4.28
2018-01-23T03:09:32.991Z,4.28
2018-01-23T03:10:39.259Z,4.27
2018-01-23T03:11:45.477Z,4.30
2018-01-23T03:12:51.624Z,4.27
2018-01-23T03:13:57.773Z,4.28
2018-01-23T03:15:03.572Z,4.28
2018-01-23T03:16:09.793Z,4.29
2018-01-23T03:17:15.940Z,4.31
2018-01-23T03:18:22.096Z,4.29
2018-01-23T03:19:28.236Z,4.33
2018-01-23T03:20:34.453Z,4.35
2018-01-23T03:21:40.657Z,4.32
2018-01-23T03:22:46.811Z,4.31
2018-01-23T03:23:53.336Z,4.35
2018-01-23T03:24:59.505Z,4.39
2018-01-23T03:26:05.408Z,4.47
2018-01-23T03:27:11.587Z,4.47
2018-01-23T03:28:17.767Z,4.52
2018-01-23T03:29:23.939Z,4.48
2018-01-23T03:30:30.140Z,4.44
2018-01-23T03:31:38.091Z,4.38
2018-01-23T03:32:44.302Z,4.35
2018-01-23T03:33:50.536Z,4.41
2018-01-23T03:34:56.745Z,4.39
2018-01-23T03:36:02.964Z,4.45
2018-01-23T03:37:09.119Z,4.45
2018-01-23T03:38:15.567Z,4.43
2018-01-23T03:39:21.804Z,4.46
2018-01-23T03:40:28.152Z,4.45
2018-01-23T03:41:34.336Z,4.40
2018-01-23T03:42:40.466Z,4.42
2018-01-23T03:43:46.710Z,4.36
2018-01-23T03:44:52.950Z,4.38
2018-01-23T03:45:59.110Z,4.37
2018-01-23T03:47:06.221Z,4.40
2018-01-23T03:48:12.383Z,4.39
2018-01-23T03:49:18.576Z,4.45
2018-01-23T03:50:24.970Z,4.52
2018-01-23T03:51:31.105Z,4.50
2018-01-23T03:52:37.390Z,4.46
2018-01-23T03:53:43.575Z,4.51
2018-01-23T03:54:49.788Z,4.47
2018-01-23T03:55:55.948Z,4.46
2018-01-23T03:57:02.129Z,4.46
2018-01-23T03:58:08.373Z,4.53
2018-01-23T03:59:14.575Z,4.54
2018-01-23T04:00:20.789Z,4.55
2018-01-23T04:01:27.009Z,4.57
2018-01-23T04:02:32.896Z,4.58
2018-01-23T04:03:39.105Z,4.57
2018-01-23T04:04:45.376Z,4.52
2018-01-23T04:05:51.592Z,4.54
2018-01-23T04:06:57.788Z,4.59
2018-01-23T04:08:04.080Z,4.60
2018-01-23T04:09:10.311Z,4.54
2018-01-23T04:10:16.540Z,4.50
2018-01-23T04:11:22.737Z,4.53
2018-01-23T04:12:28.965Z,4.52
2018-01-23T04:13:35.128Z,4.38
2018-01-23T04:14:41.291Z,4.46
2018-01-23T04:15:47.455Z,4.41
2018-01-23T04:16:53.672Z,4.42
2018-01-23T04:17:59.907Z,4.43
2018-01-23T04:19:06.062Z,4.43
2018-01-23T04:20:13.198Z,4.44
2018-01-23T04:21:19.350Z,4.47
2018-01-23T04:22:26.580Z,4.48
2018-01-23T04:23:32.740Z,4.52
2018-01-23T04:24:38.978Z,4.51
2018-01-23T04:25:45.169Z,4.54
2018-01-23T04:26:51.348Z,4.56
2018-01-23T04:27:57.528Z,4.44
2018-01-23T04:29:03.661Z,4.45
2018-01-23T04:30:09.894Z,4.48
2018-01-23T04:31:16.081Z,4.49
2018-01-23T04:32:22.271Z,4.44
2018-01-23T04:33:28.379Z,4.40
2018-01-23T04:34:34.490Z,4.39
2018-01-23T04:35:40.693Z,4.44
2018-01-23T04:36:47.171Z,4.48
2018-01-23T04:37:53.692Z,4.46
2018-01-23T04:39:00.726Z,4.42
2018-01-23T04:40:06.953Z,4.38
2018-01-23T04:41:13.094Z,4.43
2018-01-23T04:42:19.528Z,4.43
2018-01-23T04:43:25.683Z,4.42
2018-01-23T04:44:31.804Z,4.41
2018-01-23T04:45:37.931Z,4.42
2018-01-23T04:46:44.067Z,4.31
2018-01-23T04:47:50.264Z,4.32
2018-01-23T04:48:56.400Z,4.39
2018-01-23T04:50:02.570Z,4.43
2018-01-23T04:51:09.093Z,4.46
2018-01-23T04:52:15.321Z,4.45
2018-01-23T04:53:21.451Z,4.47
2018-01-23T04:54:27.568Z,4.48
2018-01-23T04:55:33.837Z,4.52
2018-01-23T04:56:40.007Z,4.47
2018-01-23T04:57:46.159Z,4.50
2018-01-23T04:58:52.366Z,4.59
2018-01-23T04:59:58.565Z,4.58
2018-01-23T05:01:04.761Z,4.47
2018-01-23T05:02:10.957Z,4.46
2018-01-23T05:03:17.106Z,4.54
2018-01-23T05:04:23.244Z,4.47
2018-01-23T05:05:29.465Z,4.55
2018-01-23T05:06:35.824Z,4.58
2018-01-23T05:07:42.113Z,4.52
2018-01-23T05:08:48.272Z,4.50
2018-01-23T05:09:54.489Z,4.42
2018-01-23T05:11:00.664Z,4.42
2018-01-23T05:12:06.841Z,4.47
2018-01-23T05:13:13.007Z,4.49
2018-01-23T05:14:19.417Z,4.39
2018-01-23T05:15:25.535Z,4.42
2018-01-23T05:16:31.701Z,4.50
2018-01-23T05:17:37.895Z,4.41
2018-01-23T05:18:44.186Z,4.43
2018-01-23T05:19:51.385Z,4.44
2018-01-23T05:20:57.544Z,4.38
2018-01-23T05:22:03.707Z,4.39
2018-01-23T05:23:09.913Z,4.46
2018-01-23T05:24:16.129Z,4.44
2018-01-23T05:25:22.287Z,4.49
2018-01-23T05:26:28.437Z,4.52
2018-01-23T05:27:34.688Z,4.46
2018-01-23T05:28:40.857Z,4.45
2018-01-23T05:29:47.891Z,4.47
2018-01-23T05:30:54.061Z,4.43
2018-01-23T05:32:00.263Z,4.44
2018-01-23T05:33:06.456Z,4.44
2018-01-23T05:34:13.971Z,4.36
2018-01-23T05:35:20.306Z,4.35
2018-01-23T05:36:26.736Z,4.40
2018-01-23T05:37:32.887Z,4.39
2018-01-23T05:38:39.060Z,4.36
2018-01-23T05:39:44.944Z,4.40
2018-01-23T05:40:51.059Z,4.43
2018-01-23T05:41:57.256Z,4.44
2018-01-23T05:43:03.699Z,4.44
2018-01-23T05:44:09.866Z,4.48
2018-01-23T05:45:16.107Z,4.48
2018-01-23T05:46:22.319Z,4.48
2018-01-23T05:47:29.357Z,4.48
2018-01-23T05:48:35.853Z,4.44
2018-01-23T05:49:42.129Z,4.47
2018-01-23T05:50:48.278Z,4.50
2018-01-23T05:51:55.358Z,4.56
2018-01-23T05:53:01.584Z,4.60
2018-01-23T05:54:07.725Z,4.66
2018-01-23T05:55:13.879Z,4.64
2018-01-23T05:56:20.077Z,4.67
2018-01-23T05:57:26.413Z,4.62
2018-01-23T05:58:33.354Z,4.57
2018-01-23T05:59:39.511Z,4.53
2018-01-23T06:00:45.707Z,4.53
2018-01-23T06:01:51.981Z,4.59
2018-01-23T06:02:58.423Z,4.63
2018-01-23T06:04:05.238Z,4.61
2018-01-23T06:05:11.061Z,4.65
2018-01-23T06:06:17.284Z,4.67
2018-01-23T06:07:23.872Z,4.66
2018-01-23T06:08:31.029Z,4.57
2018-01-23T06:09:37.185Z,4.58
2018-01-23T06:10:43.421Z,4.58
2018-01-23T06:11:49.663Z,4.60
2018-01-23T06:12:55.853Z,4.56
2018-01-23T06:14:02.049Z,4.62
2018-01-23T06:15:08.236Z,4.71
2018-01-23T06:16:14.647Z,4.62
2018-01-23T06:17:21.051Z,4.64
2018-01-23T06:18:27.372Z,4.66
2018-01-23T06:19:33.504Z,4.70
2018-01-23T06:20:39.678Z,4.73
2018-01-23T06:21:45.896Z,4.74
2018-01-23T06:22:52.049Z,4.73
2018-01-23T06:23:58.188Z,4.69
2018-01-23T06:25:04.388Z,4.71
2018-01-23T06:26:10.515Z,4.73
2018-01-23T06:27:16.713Z,4.67
2018-01-23T06:28:23.244Z,4.69
2018-01-23T06:29:29.400Z,4.69
2018-01-23T06:30:35.570Z,4.73
2018-01-23T06:31:41.840Z,4.67
2018-01-23T06:32:48.283Z,4.66
2018-01-23T06:33:54.247Z,4.67
2018-01-23T06:35:00.896Z,4.72
2018-01-23T06:36:07.165Z,4.68
2018-01-23T06:37:13.311Z,4.67
2018-01-23T06:38:19.494Z,4.65
2018-01-23T06:39:25.643Z,4.71
2018-01-23T06:40:31.902Z,4.68
2018-01-23T06:41:38.035Z,4.70
2018-01-23T06:42:44.256Z,4.72
2018-01-23T06:43:50.425Z,4.74
2018-01-23T06:44:56.933Z,4.81
2018-01-23T06:46:03.174Z,4.83
2018-01-23T06:47:09.358Z,4.78
2018-01-23T06:48:15.544Z,4.80
2018-01-23T06:49:21.677Z,4.82
2018-01-23T06:50:28.101Z,4.78
2018-01-23T06:51:38.996Z,4.75
2018-01-23T06:52:45.183Z,4.77
2018-01-23T06:53:56.369Z,4.80
2018-01-23T06:55:02.515Z,4.84
2018-01-23T06:56:08.888Z,4.71
2018-01-23T06:57:15.290Z,4.73
2018-01-23T06:58:23.335Z,4.70
2018-01-23T06:59:29.356Z,4.71
2018-01-23T07:00:35.533Z,4.69
2018-01-23T07:01:41.619Z,4.68
2018-01-23T07:02:47.976Z,4.71
2018-01-23T07:03:54.953Z,4.69
2018-01-23T07:05:01.353Z,4.75
2018-01-23T07:06:07.759Z,4.76
2018-01-23T07:07:14.221Z,4.80
2018-01-23T07:08:20.551Z,4.82
2018-01-23T07:09:27.883Z,4.79
2018-01-23T07:10:36.340Z,4.79
2018-01-23T07:11:44.394Z,4.79
2018-01-23T07:12:51.564Z,4.76
2018-01-23T07:13:57.868Z,4.68
2018-01-23T07:15:03.831Z,4.66
2018-01-23T07:16:10.140Z,4.63
2018-01-23T07:17:16.419Z,4.67
2018-01-23T07:18:22.815Z,4.69
2018-01-23T07:19:29.057Z,4.71
2018-01-23T07:20:35.492Z,4.74
2018-01-23T07:21:41.875Z,4.75
2018-01-23T07:22:47.970Z,4.76
2018-01-23T07:23:54.169Z,4.81
2018-01-23T07:25:00.337Z,4.82
2018-01-23T07:26:06.890Z,4.86
2018-01-23T07:27:13.278Z,4.95
2018-01-23T07:28:19.821Z,4.94
2018-01-23T07:29:26.248Z,4.94
2018-01-23T07:30:32.857Z,4.94
2018-01-23T07:31:39.276Z,4.94
2018-01-23T07:32:45.683Z,4.95
2018-01-23T07:33:52.008Z,4.93
2018-01-23T07:35:03.488Z,4.89
2018-01-23T07:36:09.747Z,4.83
2018-01-23T07:37:15.994Z,4.88
2018-01-23T07:38:22.608Z,4.87
2018-01-23T07:39:28.880Z,4.93
2018-01-23T07:40:35.599Z,4.92
2018-01-23T07:41:41.951Z,4.93
2018-01-23T07:42:48.287Z,4.95
2018-01-23T07:43:54.983Z,4.92
2018-01-23T07:45:01.178Z,5.01
2018-01-23T07:46:07.616Z,5.01
2018-01-23T07:47:13.829Z,5.05
2018-01-23T07:48:20.226Z,5.07
2018-01-23T07:49:27.401Z,5.03
2018-01-23T07:50:34.172Z,5.04
2018-01-23T07:51:40.396Z,5.04
2018-01-23T07:52:46.943Z,5.08
2018-01-23T07:53:53.135Z,5.07
2018-01-23T07:55:01.710Z,5.10
2018-01-23T07:56:08.616Z,5.11
2018-01-23T07:57:15.960Z,5.14
2018-01-23T07:58:22.496Z,5.18
2018-01-23T07:59:30.250Z,5.17
2018-01-23T08:00:36.582Z,5.07
2018-01-23T08:01:43.158Z,5.10
2018-01-23T08:02:54.989Z,5.10
2018-01-23T08:04:03.584Z,5.10
2018-01-23T08:05:12.699Z,5.13
2018-01-23T08:06:20.772Z,5.15
2018-01-23T08:07:28.837Z,5.19
2018-01-23T08:08:36.625Z,5.23
2018-01-23T08:09:42.821Z,5.29
2018-01-23T08:10:49.091Z,5.32
2018-01-23T08:11:55.365Z,5.29
2018-01-23T08:13:02.264Z,5.27
2018-01-23T08:14:08.645Z,5.24
2018-01-23T08:15:14.944Z,5.26
2018-01-23T08:16:22.395Z,5.29
2018-01-23T08:17:28.865Z,5.21
2018-01-23T08:18:35.318Z,5.16
2018-01-23T08:19:42.011Z,5.22
2018-01-23T08:20:48.644Z,5.25
2018-01-23T08:21:54.929Z,5.25
2018-01-23T08:23:01.152Z,5.23
2018-01-23T08:24:07.695Z,5.30
2018-01-23T08:25:13.910Z,5.25
2018-01-23T08:26:20.174Z,5.21
2018-01-23T08:27:26.351Z,5.24
2018-01-23T08:28:32.650Z,5.25
2018-01-23T08:29:39.180Z,5.31
2018-01-23T08:30:45.529Z,5.29
2018-01-23T08:31:51.723Z,5.30
2018-01-23T08:32:57.941Z,5.33
2018-01-23T08:34:03.410Z,5.33
2018-01-23T08:35:09.642Z,5.31
2018-01-23T08:36:15.857Z,5.28
2018-01-23T08:37:22.213Z,5.29
2018-01-23T08:38:28.367Z,5.35
2018-01-23T08:39:34.539Z,5.34
2018-01-23T08:40:40.728Z,5.44
2018-01-23T08:41:46.901Z,5.48
2018-01-23T08:42:53.031Z,5.52
2018-01-23T08:43:59.257Z,5.55
2018-01-23T08:45:04.722Z,5.56
2018-01-23T08:46:16.034Z,5.46
2018-01-23T08:47:22.409Z,5.41
2018-01-23T08:48:29.488Z,5.43
2018-01-23T08:49:35.628Z,5.46
2018-01-23T08:50:41.815Z,5.49
2018-01-23T08:51:48.952Z,5.60
2018-01-23T08:52:59.842Z,5.72
2018-01-23T08:54:06.490Z,5.80
2018-01-23T08:55:12.702Z,5.81
2018-01-23T08:56:19.285Z,5.86
2018-01-23T08:57:26.027Z,5.88
2018-01-23T08:58:33.131Z,5.85
2018-01-23T08:59:40.173Z,5.93
2018-01-23T09:00:47.028Z,5.88
2018-01-23T09:01:53.679Z,5.87
2018-01-23T09:03:00.192Z,5.87
2018-01-23T09:04:07.591Z,5.79
2018-01-23T09:05:14.828Z,5.78
2018-01-23T09:06:21.571Z,5.80
2018-01-23T09:07:28.250Z,5.88
2018-01-23T09:08:35.154Z,5.87
2018-01-23T09:09:41.596Z,5.89
2018-01-23T09:10:47.840Z,5.92
2018-01-23T09:11:54.493Z,5.95
2018-01-23T09:13:00.869Z,6.02
2018-01-23T09:14:06.720Z,6.03
2018-01-23T09:15:13.154Z,6.05
2018-01-23T09:16:19.407Z,6.14
2018-01-23T09:17:26.568Z,6.15
2018-01-23T09:18:32.831Z,6.13
2018-01-23T09:19:39.177Z,6.15
2018-01-23T09:20:46.173Z,6.16
2018-01-23T09:21:52.404Z,6.24
2018-01-23T09:22:58.625Z,6.15
2018-01-23T09:24:05.223Z,6.14
2018-01-23T09:25:11.525Z,6.13
2018-01-23T09:26:17.800Z,6.08
2018-01-23T09:27:24.076Z,6.16
2018-01-23T09:28:30.301Z,6.16
2018-01-23T09:29:36.501Z,6.16
2018-01-23T09:30:42.790Z,6.18
2018-01-23T09:31:48.964Z,6.24
2018-01-23T09:32:55.137Z,6.22
2018-01-23T09:34:01.293Z,6.22
2018-01-23T09:35:07.483Z,6.24
2018-01-23T09:36:13.692Z,6.27
2018-01-23T09:37:20.115Z,6.26
2018-01-23T09:38:26.420Z,6.18
2018-01-23T09:39:32.551Z,6.21
2018-01-23T09:40:38.823Z,6.26
2018-01-23T09:41:45.161Z,6.31
2018-01-23T09:42:53.349Z,6.33
2018-01-23T09:43:59.855Z,6.36
2018-01-23T09:45:05.988Z,6.37
2018-01-23T09:46:15.406Z,6.32
2018-01-23T09:47:21.816Z,6.29
2018-01-23T09:48:28.005Z,6.30
2018-01-23T09:49:34.265Z,6.32
2018-01-23T09:50:40.444Z,6.32
2018-01-23T09:51:46.556Z,6.38
2018-01-23T09:52:53.078Z,6.43
2018-01-23T09:53:59.738Z,6.50
2018-01-23T09:55:06.120Z,6.55
2018-01-23T09:56:12.674Z,6.59
2018-01-23T09:57:19.372Z,6.53
2018-01-23T09:58:25.820Z,6.56
2018-01-23T09:59:32.320Z,6.57
2018-01-23T10:00:38.644Z,6.55
2018-01-23T10:01:45.353Z,6.59
2018-01-23T10:02:52.385Z,6.66
2018-01-23T10:03:58.929Z,6.61
2018-01-23T10:05:04.755Z,6.61
2018-01-23T10:06:11.520Z,6.63
2018-01-23T10:07:18.096Z,6.61
2018-01-23T10:08:25.072Z,6.60
2018-01-23T10:09:31.906Z,6.63
2018-01-23T10:10:38.436Z,6.65
2018-01-23T10:11:44.556Z,6.68
2018-01-23T10:12:51.058Z,6.66
2018-01-23T10:13:57.523Z,6.76
2018-01-23T10:15:03.574Z,6.77
2018-01-23T10:16:09.981Z,6.68
2018-01-23T10:17:17.201Z,6.81
2018-01-23T10:18:23.461Z,6.79
2018-01-23T10:19:30.055Z,6.85
2018-01-23T10:20:36.982Z,6.83
2018-01-23T10:21:43.463Z,6.80
2018-01-23T10:22:49.759Z,6.80
2018-01-23T10:23:55.993Z,6.85
2018-01-23T10:25:02.484Z,6.90
2018-01-23T10:26:09.029Z,7.01
2018-01-23T10:27:16.370Z,7.09
2018-01-23T10:28:23.044Z,7.06
2018-01-23T10:29:29.643Z,7.04
2018-01-23T10:30:36.167Z,7.02
2018-01-23T10:31:42.857Z,6.95
2018-01-23T10:32:49.381Z,6.99
2018-01-23T10:34:03.579Z,6.89
2018-01-23T10:35:10.037Z,6.94
2018-01-23T10:36:16.456Z,6.95
2018-01-23T10:37:23.112Z,6.93
2018-01-23T10:38:29.637Z,6.90
2018-01-23T10:39:39.371Z,6.95
2018-01-23T10:40:45.640Z,6.94
2018-01-23T10:41:53.041Z,6.93
2018-01-23T10:43:00.241Z,7.01
2018-01-23T10:44:06.685Z,7.07
2018-01-23T10:45:13.009Z,7.11
2018-01-23T10:46:19.230Z,7.09
2018-01-23T10:47:26.423Z,7.12
2018-01-23T10:48:32.475Z,7.19
2018-01-23T10:49:38.482Z,7.16
2018-01-23T10:50:44.799Z,7.19
2018-01-23T10:51:51.259Z,7.22
2018-01-23T10:52:57.368Z,7.23
2018-01-23T10:54:06.113Z,7.23
2018-01-23T10:55:12.446Z,7.28
2018-01-23T10:56:18.831Z,7.33
2018-01-23T10:57:25.058Z,7.31
2018-01-23T10:58:31.551Z,7.27
2018-01-23T10:59:37.845Z,7.29
2018-01-23T11:00:50.663Z,7.25
2018-01-23T11:01:58.728Z,7.24
2018-01-23T11:03:04.905Z,7.30
2018-01-23T11:04:11.450Z,7.25
2018-01-23T11:05:17.863Z,7.27
2018-01-23T11:06:23.834Z,7.32
2018-01-23T11:07:30.040Z,7.30
2018-01-23T11:08:36.449Z,7.23
2018-01-23T11:09:42.998Z,7.22
2018-01-23T11:10:49.462Z,7.23
2018-01-23T11:11:55.635Z,7.19
2018-01-23T11:13:02.546Z,7.23
2018-01-23T11:14:09.425Z,7.17
2018-01-23T11:15:15.901Z,7.13
2018-01-23T11:16:22.486Z,7.10
2018-01-23T11:17:29.227Z,7.22
2018-01-23T11:18:35.593Z,7.17
2018-01-23T11:19:42.065Z,7.20
2018-01-23T11:20:48.849Z,7.20
2018-01-23T11:21:55.367Z,7.20
2018-01-23T11:23:02.054Z,7.22
2018-01-23T11:24:08.465Z,7.25
2018-01-23T11:25:14.631Z,7.24
2018-01-23T11:26:21.052Z,7.26
2018-01-23T11:27:27.839Z,7.25
2018-01-23T11:28:34.205Z,7.33
2018-01-23T11:29:45.956Z,7.34
2018-01-23T11:30:52.397Z,7.38
2018-01-23T11:31:58.889Z,7.43
2018-01-23T11:33:05.799Z,7.45
2018-01-23T11:34:12.467Z,7.41
2018-01-23T11:35:18.816Z,7.36
2018-01-23T11:36:27.345Z,7.39
2018-01-23T11:37:33.740Z,7.39
2018-01-23T11:38:40.276Z,7.36
2018-01-23T11:39:46.671Z,7.33
2018-01-23T11:40:53.140Z,7.27
2018-01-23T11:41:59.494Z,7.31
2018-01-23T11:43:05.924Z,7.29
2018-01-23T11:44:12.366Z,7.24
2018-01-23T11:45:20.672Z,7.22
2018-01-23T11:46:27.129Z,7.26
2018-01-23T11:47:33.299Z,7.16
2018-01-23T11:48:39.728Z,7.19
2018-01-23T11:49:46.179Z,7.18
2018-01-23T11:50:52.505Z,7.22
2018-01-23T11:51:59.049Z,7.32
2018-01-23T11:53:05.453Z,7.35
2018-01-23T11:54:11.780Z,7.37
2018-01-23T11:55:18.569Z,7.42
2018-01-23T11:56:25.316Z,7.41
2018-01-23T11:57:31.896Z,7.36
2018-01-23T11:58:38.586Z,7.42
2018-01-23T11:59:44.887Z,7.45
2018-01-23T12:00:51.241Z,7.48
2018-01-23T12:01:57.578Z,7.49
2018-01-23T12:03:04.070Z,7.49
2018-01-23T12:04:10.495Z,7.47
2018-01-23T12:05:17.050Z,7.42
2018-01-23T12:06:23.418Z,7.38
2018-01-23T12:07:29.607Z,7.40
2018-01-23T12:08:35.505Z,7.49
2018-01-23T12:09:41.840Z,7.43
2018-01-23T12:10:48.462Z,7.48
2018-01-23T12:11:54.898Z,7.57
2018-01-23T12:13:01.224Z,7.61
2018-01-23T12:14:08.245Z,7.66
2018-01-23T12:15:14.722Z,7.69
2018-01-23T12:16:21.552Z,7.56
2018-01-23T12:17:29.331Z,7.56
2018-01-23T12:18:35.607Z,7.48
2018-01-23T12:19:41.943Z,7.53
2018-01-23T12:20:48.477Z,7.50
2018-01-23T12:21:54.816Z,7.53
2018-01-23T12:23:01.254Z,7.50
2018-01-23T12:24:07.553Z,7.52
2018-01-23T12:25:13.969Z,7.51
2018-01-23T12:26:20.690Z,7.56
2018-01-23T12:27:27.842Z,7.62
2018-01-23T12:28:34.544Z,7.65
2018-01-23T12:29:40.665Z,7.72
2018-01-23T12:30:46.788Z,7.69
2018-01-23T12:31:53.440Z,7.77
2018-01-23T12:33:00.115Z,7.70
2018-01-23T12:34:06.392Z,7.72
2018-01-23T12:35:12.672Z,7.75
2018-01-23T12:36:19.005Z,7.65
2018-01-23T12:37:25.598Z,7.67
2018-01-23T12:38:31.995Z,7.64
2018-01-23T12:39:38.364Z,7.68
2018-01-23T12:40:44.680Z,7.64
2018-01-23T12:41:51.384Z,7.59
2018-01-23T12:42:57.672Z,7.62
2018-01-23T12:44:03.906Z,7.63
2018-01-23T12:45:10.313Z,7.65
2018-01-23T12:46:17.233Z,7.73
2018-01-23T12:47:23.665Z,7.76
2018-01-23T12:48:30.050Z,7.79
2018-01-23T12:49:36.296Z,7.76
2018-01-23T12:50:42.868Z,7.69
2018-01-23T12:51:49.122Z,7.63
2018-01-23T12:52:55.388Z,7.57
2018-01-23T12:54:01.528Z,7.56
2018-01-23T12:55:07.751Z,7.53
2018-01-23T12:56:13.933Z,7.51
2018-01-23T12:57:21.095Z,7.51
2018-01-23T12:58:27.232Z,7.56
2018-01-23T12:59:33.349Z,7.54
2018-01-23T13:00:39.729Z,7.57
2018-01-23T13:01:45.888Z,7.58
2018-01-23T13:02:52.294Z,7.56
2018-01-23T13:03:58.462Z,7.59
2018-01-23T13:05:04.310Z,7.59
2018-01-23T13:06:10.440Z,7.56
2018-01-23T13:07:16.629Z,7.55
2018-01-23T13:08:22.866Z,7.58
2018-01-23T13:09:29.235Z,7.56
2018-01-23T13:10:36.267Z,7.57
2018-01-23T13:11:42.397Z,7.50
2018-01-23T13:12:48.532Z,7.55
2018-01-23T13:13:54.820Z,7.49
2018-01-23T13:15:01.000Z,7.58
2018-01-23T13:16:07.224Z,7.65
2018-01-23T13:17:13.816Z,7.66
2018-01-23T13:18:20.554Z,7.57
2018-01-23T13:19:26.699Z,7.61
2018-01-23T13:20:32.888Z,7.63
2018-01-23T13:21:39.220Z,7.67
2018-01-23T13:22:45.400Z,7.59
2018-01-23T13:23:56.666Z,7.54
2018-01-23T13:25:02.840Z,7.58
2018-01-23T13:26:09.015Z,7.62
2018-01-23T13:27:15.152Z,7.57
2018-01-23T13:28:23.295Z,7.56
2018-01-23T13:29:29.477Z,7.59
2018-01-23T13:30:35.652Z,7.57
2018-01-23T13:31:41.848Z,7.56
2018-01-23T13:32:48.083Z,7.65
2018-01-23T13:34:00.323Z,7.66
2018-01-23T13:35:06.196Z,7.70
2018-01-23T13:36:12.359Z,7.63
2018-01-23T13:37:18.567Z,7.62
2018-01-23T13:38:27.776Z,7.63
2018-01-23T13:39:33.949Z,7.59
2018-01-23T13:40:40.148Z,7.60
2018-01-23T13:41:46.428Z,7.61
2018-01-23T13:42:52.601Z,7.58
2018-01-23T13:43:58.744Z,7.55
2018-01-23T13:45:04.577Z,7.53
2018-01-23T13:46:10.770Z,7.61
2018-01-23T13:47:16.894Z,7.58
2018-01-23T13:48:23.026Z,7.54
2018-01-23T13:49:29.228Z,7.60
2018-01-23T13:50:35.402Z,7.58
2018-01-23T13:51:41.672Z,7.58
2018-01-23T13:52:47.863Z,7.57
2018-01-23T13:53:54.004Z,7.50
2018-01-23T13:55:00.132Z,7.45
2018-01-23T13:56:06.334Z,7.43
2018-01-23T13:57:12.536Z,7.40
2018-01-23T13:58:18.736Z,7.38
2018-01-23T13:59:24.957Z,7.39
2018-01-23T14:00:31.139Z,7.39
2018-01-23T14:01:37.096Z,7.37
2018-01-23T14:02:43.259Z,7.39
2018-01-23T14:03:49.401Z,7.43
2018-01-23T14:04:55.584Z,7.49
2018-01-23T14:06:01.763Z,7.47
2018-01-23T14:07:08.016Z,7.51
2018-01-23T14:08:14.194Z,7.59
2018-01-23T14:09:20.381Z,7.60
2018-01-23T14:10:26.620Z,7.49
2018-01-23T14:11:32.748Z,7.52
2018-01-23T14:12:38.871Z,7.52
2018-01-23T14:13:45.026Z,7.58
2018-01-23T14:14:51.218Z,7.59
2018-01-23T14:15:57.393Z,7.69
2018-01-23T14:17:03.599Z,7.68
2018-01-23T14:18:09.742Z,7.66
2018-01-23T14:19:15.869Z,7.63
2018-01-23T14:20:22.071Z,7.64
2018-01-23T14:21:28.183Z,7.63
2018-01-23T14:22:34.415Z,7.63
2018-01-23T14:23:40.709Z,7.73
2018-01-23T14:24:46.880Z,7.73
2018-01-23T14:25:52.996Z,7.77
2018-01-23T14:27:04.554Z,7.79
2018-01-23T14:28:10.728Z,7.83
2018-01-23T14:29:16.870Z,7.86
2018-01-23T14:30:22.977Z,7.80
2018-01-23T14:31:29.124Z,7.84
2018-01-23T14:32:35.370Z,7.81
2018-01-23T14:33:41.950Z,7.74
2018-01-23T14:34:49.292Z,7.73
2018-01-23T14:35:55.536Z,7.65
2018-01-23T14:37:02.116Z,7.64
2018-01-23T14:38:08.260Z,7.68
2018-01-23T14:39:14.424Z,7.63
2018-01-23T14:40:20.893Z,7.59
2018-01-23T14:41:27.213Z,7.62
2018-01-23T14:42:33.568Z,7.54
2018-01-23T14:43:40.016Z,7.51
2018-01-23T14:44:46.341Z,7.48
2018-01-23T14:45:52.902Z,7.45